createdAt,value
2023-02-11T00:03:57.385Z,9.93
2023-02-11T00:08:09.811Z,25.23
2023-02-11T00:12:22.972Z,27.50
2023-02-11T00:16:37.943Z,9.98
2023-02-11T00:20:50.472Z,8.60
2023-02-11T00:25:03.133Z,9.52
2023-02-11T00:29:15.616Z,8.82
2023-02-11T00:33:27.847Z,10.32
2023-02-11T00:37:40.134Z,26.55
2023-02-11T00:41:52.530Z,9.93
2023-02-11T00:46:05.163Z,8.52
2023-02-11T00:50:18.555Z,26.05
2023-02-11T00:54:30.978Z,8.35
2023-02-11T00:58:43.270Z,9.23
2023-02-11T01:02:57.154Z,8.30
2023-02-11T01:07:09.653Z,10.98
2023-02-11T01:11:24.177Z,9.35
2023-02-11T01:15:36.740Z,10.70
2023-02-11T01:19:50.845Z,8.82
2023-02-11T01:24:03.358Z,9.95
2023-02-11T01:28:34.053Z,8.27
2023-02-11T01:32:46.460Z,9.50
2023-02-11T01:36:59.860Z,10.30
2023-02-11T01:41:15.264Z,11.00
2023-02-11T01:45:47.268Z,8.70
2023-02-11T01:50:02.823Z,8.95
2023-02-11T01:54:39.082Z,20.45
2023-02-11T01:58:53.561Z,25.25
2023-02-11T02:03:11.464Z,8.23
2023-02-11T02:07:39.895Z,7.63
2023-02-11T02:11:52.966Z,6.70
2023-02-11T02:16:09.960Z,7.55
2023-02-11T02:20:52.721Z,9.27
2023-02-11T02:25:29.502Z,7.50
2023-02-11T02:30:23.866Z,6.63
2023-02-11T02:34:50.254Z,5.88
2023-02-11T02:39:18.690Z,6.95
2023-02-11T02:43:31.661Z,7.00
2023-02-11T02:47:44.114Z,19.10
2023-02-11T02:52:15.122Z,5.82
2023-02-11T02:56:55.826Z,5.07
2023-02-11T03:01:40.353Z,4.78
2023-02-11T03:05:59.346Z,6.28
2023-02-11T03:10:17.840Z,18.45
2023-02-11T03:14:32.653Z,6.78
2023-02-11T03:18:50.848Z,22.50
2023-02-11T03:23:11.574Z,10.18
2023-02-11T03:27:35.158Z,7.97
2023-02-11T03:32:08.981Z,6.43
2023-02-11T03:36:29.321Z,6.88
2023-02-11T03:40:45.892Z,5.97
2023-02-11T03:45:05.293Z,5.15
2023-02-11T03:49:21.793Z,6.15
2023-02-11T03:53:37.325Z,5.20
2023-02-11T03:57:49.834Z,6.32
2023-02-11T04:02:02.088Z,9.40
2023-02-11T04:06:14.528Z,8.95
2023-02-11T04:10:26.906Z,8.90
2023-02-11T04:14:39.296Z,7.65
2023-02-11T04:18:51.606Z,5.57
2023-02-11T04:23:03.982Z,4.80
2023-02-11T04:27:16.455Z,6.50
2023-02-11T04:31:29.013Z,5.78
2023-02-11T04:35:41.489Z,6.78
2023-02-11T04:39:53.798Z,5.55
2023-02-11T04:44:06.437Z,6.45
2023-02-11T04:48:18.805Z,4.88
2023-02-11T04:52:31.204Z,6.03
2023-02-11T04:56:43.802Z,4.45
2023-02-11T05:00:56.264Z,5.53
2023-02-11T05:05:09.013Z,4.78
2023-02-11T05:09:21.289Z,5.43
2023-02-11T05:13:33.795Z,5.47
2023-02-11T05:17:46.264Z,5.50
2023-02-11T05:22:03.103Z,7.10
2023-02-11T05:26:16.097Z,5.30
2023-02-11T05:30:28.572Z,6.20
2023-02-11T05:34:41.003Z,5.85
2023-02-11T05:38:53.384Z,6.32
2023-02-11T05:43:05.689Z,6.95
2023-02-11T05:47:18.192Z,5.95
2023-02-11T05:51:30.592Z,6.22
2023-02-11T05:55:43.063Z,6.65
2023-02-11T05:59:55.479Z,5.35
2023-02-11T06:04:07.847Z,5.13
2023-02-11T06:08:20.043Z,6.53
2023-02-11T06:12:32.344Z,6.35
2023-02-11T06:16:44.781Z,6.03
2023-02-11T06:20:57.310Z,6.15
2023-02-11T06:25:11.323Z,6.55
2023-02-11T06:29:23.803Z,6.95
2023-02-11T06:33:36.564Z,8.35
2023-02-11T06:37:50.037Z,9.15
2023-02-11T06:42:02.413Z,11.85
2023-02-11T06:46:14.877Z,13.88
2023-02-11T06:50:27.265Z,13.18
2023-02-11T06:54:39.602Z,45.08
2023-02-11T06:58:58.256Z,13.77
2023-02-11T07:03:10.672Z,12.55
2023-02-11T07:07:23.101Z,12.63
2023-02-11T07:11:35.462Z,12.20
2023-02-11T07:15:48.130Z,15.82
2023-02-11T07:20:00.563Z,15.65
2023-02-11T07:24:13.610Z,40.05
2023-02-11T07:28:25.995Z,14.93
2023-02-11T07:32:44.329Z,13.55
2023-02-11T07:36:57.708Z,15.55
2023-02-11T07:41:13.732Z,13.32
2023-02-11T07:45:27.706Z,15.23
2023-02-11T07:49:40.424Z,18.90
2023-02-11T07:53:53.722Z,51.88
2023-02-11T07:58:06.855Z,22.20
2023-02-11T08:02:20.888Z,67.75
2023-02-11T08:06:35.361Z,62.67
2023-02-11T08:10:50.496Z,20.63
2023-02-11T08:15:03.208Z,49.45
2023-02-11T08:19:16.981Z,21.65
2023-02-11T08:23:29.493Z,20.02
2023-02-11T08:27:41.755Z,22.23
2023-02-11T08:31:54.289Z,19.88
2023-02-11T08:36:19.632Z,44.20
2023-02-11T08:40:31.992Z,46.05
2023-02-11T08:44:44.677Z,45.38
2023-02-11T08:48:57.175Z,40.40
2023-02-11T08:53:09.902Z,35.10
2023-02-11T08:57:22.240Z,36.80
2023-02-11T09:01:34.890Z,32.53
2023-02-11T09:05:50.430Z,30.98
2023-02-11T09:10:03.155Z,29.17
2023-02-11T09:14:24.494Z,31.52
2023-02-11T09:18:36.856Z,27.38
2023-02-11T09:22:49.421Z,24.15
2023-02-11T09:27:01.659Z,22.63
2023-02-11T09:31:17.008Z,21.48
2023-02-11T09:35:29.593Z,20.80
2023-02-11T09:39:41.926Z,19.85
2023-02-11T09:43:57.702Z,15.20
2023-02-11T09:48:19.240Z,15.35
2023-02-11T09:52:49.349Z,16.10
2023-02-11T09:57:01.927Z,17.33
2023-02-11T10:01:59.028Z,20.20
2023-02-11T10:06:23.297Z,16.80
2023-02-11T10:10:59.025Z,15.43
2023-02-11T10:15:30.269Z,15.52
2023-02-11T10:20:00.545Z,11.50
2023-02-11T10:24:16.222Z,13.35
2023-02-11T10:28:34.520Z,12.00
2023-02-11T10:33:02.818Z,11.88
2023-02-11T10:37:15.476Z,10.65
2023-02-11T10:41:34.211Z,7.22
2023-02-11T10:45:51.831Z,8.27
2023-02-11T10:50:25.902Z,9.48
2023-02-11T10:54:39.287Z,8.05
2023-02-11T10:59:01.868Z,10.07
2023-02-11T11:03:25.712Z,9.60
2023-02-11T11:07:38.306Z,9.88
2023-02-11T11:11:54.193Z,8.38
2023-02-11T11:16:09.721Z,8.13
2023-02-11T11:20:30.094Z,8.13
2023-02-11T11:24:46.975Z,6.68
2023-02-11T11:29:07.454Z,7.60
2023-02-11T11:33:33.451Z,7.68
2023-02-11T11:37:46.399Z,7.35
2023-02-11T11:42:03.480Z,7.97
2023-02-11T11:46:25.371Z,8.18
2023-02-11T11:50:42.768Z,7.40
2023-02-11T11:55:13.248Z,8.20
2023-02-11T11:59:25.636Z,8.25
2023-02-11T12:04:00.160Z,8.65
2023-02-11T12:08:38.101Z,7.90
2023-02-11T12:12:59.777Z,8.82
2023-02-11T12:17:17.924Z,7.38
2023-02-11T12:21:50.565Z,8.25
2023-02-11T12:26:25.655Z,8.38
2023-02-11T12:31:21.422Z,9.85
2023-02-11T12:35:55.577Z,10.77
2023-02-11T12:40:28.942Z,9.40
2023-02-11T12:44:52.011Z,9.25
2023-02-11T12:49:11.053Z,10.05
2023-02-11T12:53:23.432Z,8.20
2023-02-11T12:57:38.774Z,9.65
2023-02-11T13:01:56.395Z,10.15
2023-02-11T13:06:15.044Z,9.52
2023-02-11T13:10:41.635Z,8.50
2023-02-11T13:15:00.323Z,8.60
2023-02-11T13:19:26.913Z,9.38
2023-02-11T13:23:58.177Z,8.82
2023-02-11T13:37:39.313Z,10.25
2023-02-11T13:42:03.685Z,10.90
2023-02-11T13:46:16.377Z,9.77
2023-02-11T13:50:30.736Z,9.43
2023-02-11T13:54:50.177Z,8.82
2023-02-11T13:59:05.781Z,9.18
2023-02-11T14:03:39.191Z,8.82
2023-02-11T14:08:28.297Z,7.68
2023-02-11T14:12:40.948Z,8.40
2023-02-11T14:17:02.217Z,8.88
2023-02-11T14:21:24.768Z,8.00
2023-02-11T14:25:41.487Z,8.57
2023-02-11T14:30:44.763Z,9.20
2023-02-11T14:35:20.873Z,10.77
2023-02-11T14:39:58.047Z,9.57
2023-02-11T14:44:21.628Z,8.77
2023-02-11T14:48:36.625Z,8.50
2023-02-11T14:52:49.785Z,7.88
2023-02-11T14:57:17.722Z,7.78
2023-02-11T15:01:35.636Z,10.23
2023-02-11T15:05:55.810Z,10.02
2023-02-11T15:10:18.915Z,9.00
2023-02-11T15:14:34.189Z,9.38
2023-02-11T15:18:52.044Z,8.25
2023-02-11T15:23:09.315Z,7.03
2023-02-11T15:27:23.104Z,7.05
2023-02-11T15:31:37.856Z,9.30
2023-02-11T15:35:51.184Z,9.15
2023-02-11T15:40:19.327Z,9.02
2023-02-11T15:44:34.071Z,11.82
2023-02-11T15:48:51.115Z,13.85
2023-02-11T15:53:29.341Z,16.25
2023-02-11T15:57:51.329Z,15.80
2023-02-11T16:02:18.587Z,14.35
2023-02-11T16:06:42.979Z,15.40
2023-02-11T16:11:05.369Z,16.92
2023-02-11T16:15:38.576Z,16.00
2023-02-11T16:19:53.079Z,16.88
2023-02-11T16:24:21.424Z,19.20
2023-02-11T16:28:37.387Z,19.17
2023-02-11T16:32:49.938Z,19.58
2023-02-11T16:37:05.224Z,20.50
2023-02-11T16:41:17.486Z,21.75
2023-02-11T16:45:29.850Z,22.90
2023-02-11T16:49:43.141Z,22.33
2023-02-11T16:53:55.487Z,23.02
2023-02-11T16:58:10.112Z,29.23
2023-02-11T17:02:28.486Z,35.75
2023-02-11T17:06:42.761Z,39.70
2023-02-11T17:10:56.046Z,43.20
2023-02-11T17:15:08.919Z,48.38
2023-02-11T17:19:22.069Z,56.60
2023-02-11T17:23:34.494Z,52.28
2023-02-11T17:27:51.225Z,56.08
2023-02-11T17:32:06.625Z,56.40
2023-02-11T17:36:19.151Z,44.35
2023-02-11T17:40:33.220Z,44.60
2023-02-11T17:44:46.562Z,45.95
2023-02-11T17:48:59.978Z,38.95
2023-02-11T17:53:12.456Z,43.47
2023-02-11T17:57:24.830Z,49.08
2023-02-11T18:01:39.394Z,48.80
2023-02-11T18:05:52.017Z,49.67
2023-02-11T18:10:07.601Z,44.78
2023-02-11T18:14:21.498Z,15.25
2023-02-11T18:18:33.979Z,12.40
2023-02-11T18:22:46.518Z,34.97
2023-02-11T18:26:59.036Z,31.90
2023-02-11T18:31:12.033Z,31.65
2023-02-11T18:35:27.558Z,32.65
2023-02-11T18:39:40.670Z,32.88
2023-02-11T18:43:53.516Z,32.45
2023-02-11T18:48:07.298Z,34.60
2023-02-11T18:52:19.855Z,35.22
2023-02-11T18:56:33.700Z,30.90
2023-02-11T19:00:50.067Z,11.48
2023-02-11T19:05:06.207Z,33.17
2023-02-11T19:09:20.036Z,30.42
2023-02-11T19:13:32.546Z,9.85
2023-02-11T19:17:44.869Z,10.68
2023-02-11T19:21:58.520Z,25.75
2023-02-11T19:26:10.844Z,25.52
2023-02-11T19:30:23.238Z,22.08
2023-02-11T19:34:41.526Z,7.78
2023-02-11T19:38:54.359Z,20.83
2023-02-11T19:43:06.735Z,17.58
2023-02-11T19:47:19.806Z,6.93
2023-02-11T19:51:39.504Z,7.63
2023-02-11T19:55:52.301Z,20.45
2023-02-11T20:00:05.816Z,20.15
2023-02-11T20:04:25.578Z,7.72
2023-02-11T20:08:38.069Z,7.28
2023-02-11T20:12:50.701Z,18.45
2023-02-11T20:17:04.250Z,7.18
2023-02-11T20:21:20.069Z,18.20
2023-02-11T20:25:32.451Z,20.75
2023-02-11T20:29:45.004Z,17.45
2023-02-11T20:34:00.241Z,17.13
2023-02-11T20:38:12.543Z,16.38
2023-02-11T20:42:25.573Z,16.63
2023-02-11T20:46:40.550Z,5.75
2023-02-11T20:50:54.455Z,17.27
2023-02-11T20:55:06.878Z,17.67
2023-02-11T20:59:19.832Z,6.72
2023-02-11T21:03:32.308Z,16.38
2023-02-11T21:07:44.676Z,16.15
2023-02-11T21:11:57.467Z,5.65
2023-02-11T21:16:14.130Z,6.22
2023-02-11T21:20:26.455Z,15.38
2023-02-11T21:24:39.020Z,16.20
2023-02-11T21:28:52.721Z,15.65
2023-02-11T21:33:05.643Z,7.00
2023-02-11T21:37:18.028Z,15.55
2023-02-11T21:41:30.706Z,6.65
2023-02-11T21:45:48.175Z,6.95
2023-02-11T21:50:00.534Z,19.60
2023-02-11T21:54:12.918Z,7.55
2023-02-11T21:58:25.240Z,5.95
2023-02-11T22:02:40.949Z,6.18
2023-02-11T22:06:53.466Z,5.20
2023-02-11T22:11:09.269Z,6.55
2023-02-11T22:15:22.295Z,12.68
2023-02-11T22:19:36.766Z,4.85
2023-02-11T22:23:52.006Z,4.68
2023-02-11T22:28:04.497Z,12.85
2023-02-11T22:32:18.597Z,4.40
2023-02-11T22:36:33.792Z,4.47
2023-02-11T22:40:46.149Z,4.45
2023-02-11T22:44:58.375Z,5.90
2023-02-11T22:49:13.371Z,5.72
2023-02-11T22:53:25.893Z,6.53
2023-02-11T22:57:38.276Z,7.68
2023-02-11T23:01:50.804Z,11.35
2023-02-11T23:06:03.887Z,30.30
2023-02-11T23:10:19.046Z,25.67
2023-02-11T23:14:32.039Z,6.93
2023-02-11T23:18:46.245Z,7.85
2023-02-11T23:22:58.710Z,6.20
2023-02-11T23:27:11.044Z,15.70
2023-02-11T23:31:29.979Z,13.65
2023-02-11T23:35:42.438Z,5.32
2023-02-11T23:39:54.845Z,4.18
2023-02-11T23:44:07.151Z,12.40
2023-02-11T23:48:19.725Z,12.63
2023-02-11T23:52:32.019Z,5.40
2023-02-11T23:56:44.309Z,3.80
